createdAt,value
2023-02-08T00:00:42.663Z,104161.91
2023-02-08T00:03:09.241Z,104154.06
2023-02-08T00:05:35.819Z,104147.28
2023-02-08T00:08:02.258Z,104153.22
2023-02-08T00:10:28.745Z,104154.78
2023-02-08T00:12:55.405Z,104147.88
2023-02-08T00:15:22.168Z,104150.31
2023-02-08T00:17:48.639Z,104147.59
2023-02-08T00:20:15.452Z,104155.09
2023-02-08T00:22:41.939Z,104149.06
2023-02-08T00:25:08.956Z,104151.50
2023-02-08T00:27:35.950Z,104147.22
2023-02-08T00:30:02.440Z,104135.16
2023-02-08T00:32:28.902Z,104132.53
2023-02-08T00:34:55.308Z,104132.59
2023-02-08T00:37:21.829Z,104125.81
2023-02-08T00:39:48.283Z,104124.19
2023-02-08T00:42:14.693Z,104116.44
2023-02-08T00:44:41.160Z,104116.44
2023-02-08T00:47:07.595Z,104116.44
2023-02-08T00:49:34.035Z,104106.94
2023-02-08T00:52:00.530Z,104108.44
2023-02-08T00:54:27.169Z,104115.16
2023-02-08T00:56:53.629Z,104114.19
2023-02-08T00:59:20.116Z,104120.88
2023-02-08T01:01:46.570Z,104120.88
2023-02-08T01:04:12.981Z,104118.25
2023-02-08T01:06:39.373Z,104125.91
2023-02-08T01:09:05.832Z,104133.50
2023-02-08T01:11:32.283Z,104123.28
2023-02-08T01:13:59.357Z,104123.88
2023-02-08T01:16:28.760Z,104132.28
2023-02-08T01:18:56.933Z,104126.28
2023-02-08T01:21:26.140Z,104121.97
2023-02-08T01:23:53.248Z,104132.13
2023-02-08T01:26:21.380Z,104138.00
2023-02-08T01:28:48.934Z,104136.19
2023-02-08T01:31:19.620Z,104136.06
2023-02-08T01:33:46.186Z,104140.38
2023-02-08T01:36:12.808Z,104132.59
2023-02-08T01:38:39.733Z,104129.13
2023-02-08T01:41:08.691Z,104122.38
2023-02-08T01:44:01.038Z,104120.53
2023-02-08T01:46:28.148Z,104122.22
2023-02-08T01:48:59.395Z,104117.97
2023-02-08T01:51:29.984Z,104118.06
2023-02-08T01:53:57.767Z,104108.56
2023-02-08T01:56:33.225Z,104111.91
2023-02-08T01:59:03.061Z,104107.50
2023-02-08T02:01:31.556Z,104111.66
2023-02-08T02:04:02.051Z,104113.19
2023-02-08T02:06:33.944Z,104117.31
2023-02-08T02:09:23.723Z,104122.22
2023-02-08T02:11:53.208Z,104114.50
2023-02-08T02:14:20.092Z,104110.13
2023-02-08T02:16:46.744Z,104113.38
2023-02-08T02:19:44.096Z,104106.53
2023-02-08T02:22:31.791Z,104102.13
2023-02-08T02:25:16.375Z,104109.78
2023-02-08T02:27:57.904Z,104103.88
2023-02-08T02:30:58.249Z,104103.72
2023-02-08T02:33:27.724Z,104093.44
2023-02-08T02:36:01.491Z,104090.81
2023-02-08T02:38:41.747Z,104089.91
2023-02-08T02:41:57.862Z,104086.31
2023-02-08T02:44:42.019Z,104085.44
2023-02-08T02:47:32.165Z,104090.47
2023-02-08T02:50:18.688Z,104087.81
2023-02-08T02:52:52.032Z,104097.94
2023-02-08T02:55:23.773Z,104096.09
2023-02-08T02:57:53.391Z,104087.50
2023-02-08T03:00:25.392Z,104092.50
2023-02-08T03:02:52.576Z,104088.22
2023-02-08T03:05:19.322Z,104090.75
2023-02-08T03:08:12.383Z,104088.97
2023-02-08T03:11:11.102Z,104082.25
2023-02-08T03:13:43.624Z,104081.34
2023-02-08T03:16:15.923Z,104083.13
2023-02-08T03:19:07.209Z,104080.56
2023-02-08T03:21:39.624Z,104079.69
2023-02-08T03:24:20.163Z,104067.72
2023-02-08T03:27:09.244Z,104068.53
2023-02-08T03:29:59.810Z,104063.34
2023-02-08T03:32:38.385Z,104069.22
2023-02-08T03:35:47.355Z,104075.81
2023-02-08T03:38:21.076Z,104062.22
2023-02-08T03:40:51.605Z,104068.88
2023-02-08T03:43:23.322Z,104073.09
2023-02-08T03:45:55.484Z,104071.19
2023-02-08T03:48:25.020Z,104083.91
2023-02-08T03:50:55.610Z,104086.41
2023-02-08T03:53:24.819Z,104085.41
2023-02-08T03:55:58.551Z,104088.66
2023-02-08T03:58:34.503Z,104090.34
2023-02-08T04:01:08.985Z,104089.47
2023-02-08T04:03:36.595Z,104086.91
2023-02-08T04:06:03.167Z,104084.38
2023-02-08T04:08:29.592Z,104085.19
2023-02-08T04:10:56.048Z,104084.19
2023-02-08T04:13:22.491Z,104085.06
2023-02-08T04:15:49.035Z,104085.00
2023-02-08T04:18:15.877Z,104089.22
2023-02-08T04:20:42.499Z,104086.66
2023-02-08T04:23:09.004Z,104087.44
2023-02-08T04:25:35.424Z,104086.50
2023-02-08T04:28:01.851Z,104075.31
2023-02-08T04:30:28.506Z,104072.78
2023-02-08T04:32:55.017Z,104079.56
2023-02-08T04:35:21.475Z,104081.03
2023-02-08T04:37:47.936Z,104079.28
2023-02-08T04:40:14.397Z,104080.06
2023-02-08T04:42:40.819Z,104069.09
2023-02-08T04:45:07.670Z,104077.53
2023-02-08T04:47:34.118Z,104069.88
2023-02-08T04:50:00.555Z,104069.69
2023-02-08T04:52:27.006Z,104064.59
2023-02-08T04:54:53.446Z,104063.66
2023-02-08T04:57:19.908Z,104060.25
2023-02-08T04:59:46.344Z,104056.78
2023-02-08T05:02:12.860Z,104044.00
2023-02-08T05:04:39.295Z,104056.78
2023-02-08T05:07:05.753Z,104055.84
2023-02-08T05:09:32.307Z,104048.97
2023-02-08T05:11:58.748Z,104048.03
2023-02-08T05:14:25.203Z,104048.84
2023-02-08T05:16:51.656Z,104051.28
2023-02-08T05:19:18.176Z,104047.84
2023-02-08T05:21:44.633Z,104052.94
2023-02-08T05:24:12.440Z,104057.16
2023-02-08T05:26:40.066Z,104049.53
2023-02-08T05:29:06.635Z,104042.66
2023-02-08T05:31:33.222Z,104048.66
2023-02-08T05:33:59.711Z,104049.34
2023-02-08T05:36:27.025Z,104048.38
2023-02-08T05:38:53.590Z,104048.31
2023-02-08T05:41:20.201Z,104045.75
2023-02-08T05:43:46.739Z,104057.50
2023-02-08T05:46:13.480Z,104055.75
2023-02-08T05:48:40.267Z,104059.09
2023-02-08T05:51:07.408Z,104051.34
2023-02-08T05:53:34.110Z,104052.94
2023-02-08T05:56:00.736Z,104047.84
2023-02-08T05:58:28.270Z,104046.88
2023-02-08T06:00:54.992Z,104046.88
2023-02-08T06:03:21.801Z,104044.41
2023-02-08T06:05:48.592Z,104042.75
2023-02-08T06:08:15.570Z,104040.19
2023-02-08T06:10:42.434Z,104043.66
2023-02-08T06:13:09.043Z,104044.53
2023-02-08T06:15:35.669Z,104041.97
2023-02-08T06:18:02.198Z,104044.34
2023-02-08T06:20:28.649Z,104047.69
2023-02-08T06:22:55.347Z,104043.38
2023-02-08T06:25:21.784Z,104045.91
2023-02-08T06:27:48.287Z,104044.97
2023-02-08T06:30:14.766Z,104045.72
2023-02-08T06:32:41.239Z,104051.63
2023-02-08T06:35:08.074Z,104043.91
2023-02-08T06:37:34.511Z,104054.78
2023-02-08T06:40:02.042Z,104049.59
2023-02-08T06:42:28.814Z,104053.81
2023-02-08T06:44:56.001Z,104043.53
2023-02-08T06:47:23.218Z,104051.94
2023-02-08T06:49:49.720Z,104050.19
2023-02-08T06:52:16.322Z,104057.75
2023-02-08T06:54:43.186Z,104058.53
2023-02-08T06:57:12.714Z,104057.66
2023-02-08T06:59:39.871Z,104047.41
2023-02-08T07:02:11.635Z,104041.44
2023-02-08T07:04:38.278Z,104043.19
2023-02-08T07:07:04.746Z,104045.63
2023-02-08T07:09:33.408Z,104038.91
2023-02-08T07:12:02.365Z,104028.72
2023-02-08T07:14:28.914Z,104029.47
2023-02-08T07:16:56.303Z,104033.81
2023-02-08T07:19:23.021Z,104038.00
2023-02-08T07:21:49.566Z,104041.31
2023-02-08T07:24:17.930Z,104043.06
2023-02-08T07:26:44.906Z,104048.28
2023-02-08T07:29:11.396Z,104052.66
2023-02-08T07:31:37.900Z,104059.59
2023-02-08T07:34:04.420Z,104067.41
2023-02-08T07:36:31.441Z,104061.53
2023-02-08T07:38:58.100Z,104057.41
2023-02-08T07:41:24.793Z,104056.72
2023-02-08T07:43:51.241Z,104044.16
2023-02-08T07:46:20.729Z,104047.75
2023-02-08T07:48:49.259Z,104042.06
2023-02-08T07:51:16.109Z,104043.22
2023-02-08T07:53:42.548Z,104045.19
2023-02-08T07:56:10.445Z,104034.44
2023-02-08T07:58:37.649Z,104037.31
2023-02-08T08:01:19.704Z,104040.00
2023-02-08T08:03:47.831Z,104027.63
2023-02-08T08:06:14.364Z,104025.44
2023-02-08T08:08:40.871Z,104024.03
2023-02-08T08:11:07.374Z,104019.19
2023-02-08T08:13:33.827Z,104014.31
2023-02-08T08:16:00.318Z,104030.84
2023-02-08T08:18:26.836Z,104026.94
2023-02-08T08:20:53.317Z,104027.28
2023-02-08T08:23:19.918Z,104028.50
2023-02-08T08:25:46.603Z,104025.41
2023-02-08T08:28:13.243Z,104022.41
2023-02-08T08:30:43.782Z,104018.56
2023-02-08T08:33:10.958Z,104016.44
2023-02-08T08:35:37.838Z,104013.41
2023-02-08T08:38:04.514Z,104006.97
2023-02-08T08:40:31.166Z,104004.81
2023-02-08T08:42:57.621Z,104009.41
2023-02-08T08:45:24.138Z,103998.66
2023-02-08T08:47:50.672Z,104004.16
2023-02-08T08:50:17.231Z,104008.75
2023-02-08T08:52:43.844Z,104005.56
2023-02-08T08:55:10.422Z,104004.06
2023-02-08T08:57:37.110Z,104004.34
2023-02-08T09:00:05.030Z,104008.97
2023-02-08T09:02:31.550Z,104007.66
2023-02-08T09:05:00.276Z,104006.34
2023-02-08T09:07:26.815Z,104009.38
2023-02-08T09:09:53.291Z,104000.47
2023-02-08T09:12:19.767Z,104006.75
2023-02-08T09:14:46.220Z,104005.44
2023-02-08T09:17:12.677Z,104004.84
2023-02-08T09:19:39.370Z,104001.06
2023-02-08T09:22:06.932Z,104002.16
2023-02-08T09:24:34.299Z,104001.66
2023-02-08T09:27:01.331Z,104003.72
2023-02-08T09:29:32.790Z,104009.22
2023-02-08T09:31:59.691Z,104005.19
2023-02-08T09:34:26.170Z,104003.78
2023-02-08T09:36:52.633Z,104005.81
2023-02-08T09:39:24.149Z,104008.06
2023-02-08T09:42:05.906Z,104004.13
2023-02-08T09:44:45.191Z,104006.25
2023-02-08T09:47:18.520Z,104006.56
2023-02-08T09:49:57.557Z,104012.84
2023-02-08T09:52:37.077Z,104014.94
2023-02-08T09:55:28.979Z,104013.50
2023-02-08T09:57:58.431Z,104008.03
2023-02-08T10:00:42.036Z,104005.78
2023-02-08T10:03:37.777Z,104002.78
2023-02-08T10:06:06.864Z,104008.44
2023-02-08T10:08:35.833Z,104004.47
2023-02-08T10:11:36.739Z,104003.94
2023-02-08T10:14:22.600Z,104003.25
2023-02-08T10:16:58.317Z,104002.78
2023-02-08T10:19:30.945Z,104013.47
2023-02-08T10:22:20.011Z,104013.84
2023-02-08T10:25:06.290Z,104007.13
2023-02-08T10:27:54.338Z,104005.94
2023-02-08T10:30:25.631Z,104016.47
2023-02-08T10:33:07.076Z,104016.63
2023-02-08T10:35:38.349Z,104015.19
2023-02-08T10:38:45.914Z,104012.03
2023-02-08T10:41:20.617Z,104027.84
2023-02-08T10:44:29.101Z,104016.22
2023-02-08T10:47:13.399Z,104016.38
2023-02-08T10:49:53.533Z,104011.28
2023-02-08T10:52:20.116Z,104000.50
2023-02-08T10:54:46.568Z,104000.88
2023-02-08T10:57:22.105Z,104004.59
2023-02-08T10:59:55.174Z,103992.75
2023-02-08T11:02:34.469Z,103995.41
2023-02-08T11:05:27.284Z,103996.53
2023-02-08T11:08:11.525Z,103985.72
2023-02-08T11:10:39.576Z,103982.69
2023-02-08T11:13:17.113Z,103979.47
2023-02-08T11:15:53.794Z,103980.44
2023-02-08T11:18:25.112Z,103984.81
2023-02-08T11:20:55.785Z,103984.16
2023-02-08T11:23:42.938Z,103983.56
2023-02-08T11:26:23.936Z,103986.31
2023-02-08T11:29:15.160Z,103980.53
2023-02-08T11:31:56.669Z,103973.97
2023-02-08T11:34:32.833Z,103974.13
2023-02-08T11:37:03.567Z,103961.44
2023-02-08T11:39:42.868Z,103966.31
2023-02-08T11:42:20.899Z,103954.63
2023-02-08T11:44:48.840Z,103951.38
2023-02-08T11:47:18.613Z,103939.66
2023-02-08T11:49:53.653Z,103937.09
2023-02-08T11:52:32.224Z,103938.03
2023-02-08T11:55:33.730Z,103943.41
2023-02-08T11:58:01.428Z,103943.56
2023-02-08T12:00:36.797Z,103947.97
2023-02-08T12:03:23.690Z,103932.03
2023-02-08T12:06:25.227Z,103922.72
2023-02-08T12:09:14.675Z,103916.81
2023-02-08T12:11:42.874Z,103904.13
2023-02-08T12:14:21.186Z,103905.94
2023-02-08T12:17:12.547Z,103893.19
2023-02-08T12:20:00.861Z,103895.16
2023-02-08T12:22:29.372Z,103902.22
2023-02-08T12:25:17.737Z,103887.84
2023-02-08T12:28:07.606Z,103879.44
2023-02-08T12:30:39.463Z,103877.78
2023-02-08T12:33:17.428Z,103858.06
2023-02-08T12:36:05.091Z,103866.03
2023-02-08T12:39:20.834Z,103855.88
2023-02-08T12:42:18.258Z,103857.75
2023-02-08T12:44:59.945Z,103838.94
2023-02-08T12:47:38.460Z,103840.03
2023-02-08T12:50:05.130Z,103842.75
2023-02-08T12:52:48.803Z,103828.88
2023-02-08T12:55:22.383Z,103829.78
2023-02-08T12:58:19.137Z,103828.22
2023-02-08T13:00:48.108Z,103816.38
2023-02-08T13:03:39.964Z,103823.34
2023-02-08T13:06:13.669Z,103816.38
2023-02-08T13:08:47.798Z,103826.88
2023-02-08T13:11:20.224Z,103816.69
2023-02-08T13:13:55.577Z,103819.34
2023-02-08T13:16:26.268Z,103808.22
2023-02-08T13:19:01.803Z,103804.72
2023-02-08T13:21:40.983Z,103801.41
2023-02-08T13:24:22.940Z,103804.97
2023-02-08T13:26:49.468Z,103807.66
2023-02-08T13:29:19.500Z,103807.78
2023-02-08T13:31:56.933Z,103795.78
2023-02-08T13:34:51.102Z,103794.13
2023-02-08T13:37:33.104Z,103786.47
2023-02-08T13:40:04.453Z,103788.97
2023-02-08T13:42:39.700Z,103783.09
2023-02-08T13:45:08.959Z,103771.06
2023-02-08T13:47:46.243Z,103763.25
2023-02-08T13:50:38.852Z,103764.91
2023-02-08T13:53:06.504Z,103751.16
2023-02-08T13:55:36.166Z,103751.25
2023-02-08T13:58:16.107Z,103746.16
2023-02-08T14:00:55.015Z,103749.72
2023-02-08T14:03:24.639Z,103739.41
2023-02-08T14:05:59.910Z,103747.13
2023-02-08T14:08:52.129Z,103743.69
2023-02-08T14:11:25.441Z,103742.84
2023-02-08T14:14:19.813Z,103739.41
2023-02-08T14:17:07.130Z,103730.78
2023-02-08T14:19:36.624Z,103732.59
2023-02-08T14:22:06.230Z,103733.50
2023-02-08T14:24:37.185Z,103735.19
2023-02-08T14:27:09.849Z,103725.66
2023-02-08T14:29:37.312Z,103725.63
2023-02-08T14:32:05.122Z,103720.34
2023-02-08T14:34:35.397Z,103716.00
2023-02-08T14:37:25.058Z,103709.97
2023-02-08T14:40:16.972Z,103710.75
2023-02-08T14:43:03.622Z,103698.72
2023-02-08T14:45:39.446Z,103702.91
2023-02-08T14:48:08.050Z,103698.63
2023-02-08T14:50:39.583Z,103688.22
2023-02-08T14:53:19.458Z,103683.00
2023-02-08T14:55:52.013Z,103670.97
2023-02-08T14:58:34.823Z,103667.44
2023-02-08T15:01:07.430Z,103668.34
2023-02-08T15:03:35.281Z,103660.47
2023-02-08T15:06:28.096Z,103659.63
2023-02-08T15:08:55.615Z,103653.50
2023-02-08T15:11:31.308Z,103650.00
2023-02-08T15:14:01.284Z,103652.59
2023-02-08T15:16:40.000Z,103650.81
2023-02-08T15:19:09.091Z,103640.47
2023-02-08T15:21:38.865Z,103633.59
2023-02-08T15:24:23.015Z,103631.03
2023-02-08T15:26:54.935Z,103630.09
2023-02-08T15:29:42.801Z,103626.59
2023-02-08T15:32:16.390Z,103617.91
2023-02-08T15:34:45.245Z,103619.56
2023-02-08T15:37:38.072Z,103609.09
2023-02-08T15:40:05.206Z,103621.16
2023-02-08T15:42:33.758Z,103618.53
2023-02-08T15:45:05.420Z,103622.78
2023-02-08T15:47:37.918Z,103623.59
2023-02-08T15:50:17.847Z,103622.69
2023-02-08T15:52:44.626Z,103620.91
2023-02-08T15:55:18.297Z,103618.31
2023-02-08T15:57:48.238Z,103607.03
2023-02-08T16:00:33.106Z,103612.06
2023-02-08T16:03:19.555Z,103612.03
2023-02-08T16:05:51.464Z,103619.63
2023-02-08T16:08:34.259Z,103607.47
2023-02-08T16:11:03.524Z,103609.94
2023-02-08T16:13:33.542Z,103601.22
2023-02-08T16:16:15.223Z,103601.22
2023-02-08T16:18:46.207Z,103591.69
2023-02-08T16:21:24.858Z,103593.38
2023-02-08T16:23:56.465Z,103586.44
2023-02-08T16:26:30.036Z,103579.44
2023-02-08T16:28:59.983Z,103583.66
2023-02-08T16:31:30.986Z,103583.53
2023-02-08T16:34:14.128Z,103584.25
2023-02-08T16:36:42.844Z,103578.06
2023-02-08T16:39:21.652Z,103580.53
2023-02-08T16:42:09.684Z,103585.50
2023-02-08T16:44:58.876Z,103581.81
2023-02-08T16:47:28.398Z,103583.34
2023-02-08T16:49:54.938Z,103590.06
2023-02-08T16:52:21.592Z,103590.72
2023-02-08T16:54:48.262Z,103591.38
2023-02-08T16:57:14.687Z,103591.16
2023-02-08T16:59:41.290Z,103589.28
2023-02-08T17:02:12.380Z,103587.41
2023-02-08T17:04:39.429Z,103584.66
2023-02-08T17:07:06.126Z,103582.78
2023-02-08T17:09:32.660Z,103575.69
2023-02-08T17:11:59.084Z,103574.69
2023-02-08T17:14:25.490Z,103588.22
2023-02-08T17:16:52.022Z,103576.94
2023-02-08T17:19:18.588Z,103573.31
2023-02-08T17:21:45.075Z,103568.94
2023-02-08T17:24:12.011Z,103563.66
2023-02-08T17:26:43.794Z,103569.53
2023-02-08T17:29:12.445Z,103567.75
2023-02-08T17:31:41.769Z,103569.38
2023-02-08T17:34:08.425Z,103569.28
2023-02-08T17:36:36.811Z,103574.28
2023-02-08T17:39:05.436Z,103563.94
2023-02-08T17:41:31.855Z,103565.56
2023-02-08T17:43:58.570Z,103569.72
2023-02-08T17:46:30.625Z,103565.41
2023-02-08T17:49:01.753Z,103565.34
2023-02-08T17:51:28.522Z,103567.00
2023-02-08T17:53:55.006Z,103560.94
2023-02-08T17:56:24.366Z,103565.22
2023-02-08T17:58:53.766Z,103560.88
2023-02-08T18:01:24.570Z,103559.06
2023-02-08T18:03:52.209Z,103553.84
2023-02-08T18:06:19.212Z,103555.47
2023-02-08T18:08:46.487Z,103551.09
2023-02-08T18:11:17.969Z,103557.00
2023-02-08T18:13:45.316Z,103556.97
2023-02-08T18:16:15.151Z,103551.75
2023-02-08T18:18:42.095Z,103547.38
2023-02-08T18:21:13.937Z,103537.97
2023-02-08T18:23:41.406Z,103538.81
2023-02-08T18:26:13.889Z,103532.91
2023-02-08T18:28:40.516Z,103527.00
2023-02-08T18:31:09.947Z,103532.13
2023-02-08T18:33:37.815Z,103532.13
2023-02-08T18:36:06.334Z,103526.06
2023-02-08T18:38:33.664Z,103529.50
2023-02-08T18:41:00.128Z,103528.66
2023-02-08T18:43:30.402Z,103523.63
2023-02-08T18:46:01.615Z,103522.81
2023-02-08T18:48:28.329Z,103526.31
2023-02-08T18:50:56.646Z,103518.63
2023-02-08T18:53:23.830Z,103519.44
2023-02-08T18:55:55.347Z,103515.19
2023-02-08T18:58:22.842Z,103517.75
2023-02-08T19:00:50.760Z,103518.56
2023-02-08T19:03:18.228Z,103520.25
2023-02-08T19:05:45.366Z,103525.28
2023-02-08T19:08:12.945Z,103526.09
2023-02-08T19:10:41.219Z,103531.09
2023-02-08T19:13:07.952Z,103536.06
2023-02-08T19:15:41.357Z,103533.34
2023-02-08T19:18:08.270Z,103529.78
2023-02-08T19:20:36.788Z,103525.31
2023-02-08T19:23:05.139Z,103519.25
2023-02-08T19:25:35.593Z,103522.50
2023-02-08T19:28:02.135Z,103520.75
2023-02-08T19:30:28.739Z,103517.13
2023-02-08T19:32:55.485Z,103514.41
2023-02-08T19:35:22.249Z,103518.63
2023-02-08T19:37:51.280Z,103512.50
2023-02-08T19:40:19.233Z,103501.28
2023-02-08T19:42:45.815Z,103504.56
2023-02-08T19:45:13.653Z,103503.66
2023-02-08T19:47:51.147Z,103501.91
2023-02-08T19:50:18.340Z,103506.91
2023-02-08T19:52:44.824Z,103499.13
2023-02-08T19:55:11.339Z,103496.50
2023-02-08T19:57:40.007Z,103493.06
2023-02-08T20:00:17.458Z,103496.41
2023-02-08T20:02:48.018Z,103497.97
2023-02-08T20:05:14.458Z,103490.19
2023-02-08T20:07:40.951Z,103492.69
2023-02-08T20:10:07.769Z,103495.19
2023-02-08T20:12:34.158Z,103494.22
2023-02-08T20:15:00.552Z,103489.88
2023-02-08T20:17:27.036Z,103487.25
2023-02-08T20:19:53.489Z,103483.72
2023-02-08T20:22:19.943Z,103481.13
2023-02-08T20:24:46.469Z,103479.28
2023-02-08T20:27:13.039Z,103484.25
2023-02-08T20:29:39.489Z,103493.53
2023-02-08T20:32:06.085Z,103490.88
2023-02-08T20:34:32.559Z,103487.34
2023-02-08T20:37:08.273Z,103485.56
2023-02-08T20:39:36.711Z,103487.22
2023-02-08T20:42:04.289Z,103496.53
2023-02-08T20:44:31.857Z,103496.41
2023-02-08T20:46:58.535Z,103507.41
2023-02-08T20:49:26.792Z,103503.81
2023-02-08T20:51:54.407Z,103501.22
2023-02-08T20:54:23.925Z,103496.75
2023-02-08T20:56:51.572Z,103493.28
2023-02-08T20:59:18.030Z,103495.66
2023-02-08T21:01:46.476Z,103487.84
2023-02-08T21:04:13.716Z,103495.50
2023-02-08T21:06:44.262Z,103489.44
2023-02-08T21:09:15.611Z,103489.34
2023-02-08T21:11:43.389Z,103488.41
2023-02-08T21:14:15.365Z,103495.22
2023-02-08T21:16:42.005Z,103485.75
2023-02-08T21:19:10.753Z,103483.97
2023-02-08T21:21:37.387Z,103476.22
2023-02-08T21:24:04.328Z,103479.56
2023-02-08T21:26:30.889Z,103476.91
2023-02-08T21:28:58.715Z,103475.97
2023-02-08T21:31:26.439Z,103470.84
2023-02-08T21:33:53.680Z,103469.00
2023-02-08T21:36:23.455Z,103465.47
2023-02-08T21:38:50.376Z,103465.41
2023-02-08T21:41:23.335Z,103459.41
2023-02-08T21:43:52.786Z,103462.72
2023-02-08T21:46:19.270Z,103462.63
2023-02-08T21:49:04.713Z,103471.09
2023-02-08T21:51:50.461Z,103466.72
2023-02-08T21:54:38.474Z,103464.88
2023-02-08T21:57:07.416Z,103456.16
2023-02-08T21:59:37.658Z,103455.25
2023-02-08T22:02:05.946Z,103450.94
2023-02-08T22:04:55.499Z,103450.91
2023-02-08T22:07:23.237Z,103442.28
2023-02-08T22:09:49.948Z,103450.78
2023-02-08T22:12:18.396Z,103443.94
2023-02-08T22:14:44.874Z,103441.28
2023-02-08T22:17:11.358Z,103437.78
2023-02-08T22:19:41.707Z,103430.81
2023-02-08T22:22:09.338Z,103433.25
2023-02-08T22:24:36.896Z,103430.69
2023-02-08T22:27:03.561Z,103426.41
2023-02-08T22:29:29.983Z,103415.25
2023-02-08T22:31:56.558Z,103410.97
2023-02-08T22:34:23.157Z,103405.84
2023-02-08T22:36:49.684Z,103400.63
2023-02-08T22:39:16.117Z,103402.25
2023-02-08T22:41:42.575Z,103397.88
2023-02-08T22:44:08.976Z,103406.34
2023-02-08T22:46:35.478Z,103401.91
2023-02-08T22:49:02.067Z,103400.06
2023-02-08T22:51:28.481Z,103400.06
2023-02-08T22:53:55.987Z,103405.94
2023-02-08T22:56:22.547Z,103403.31
2023-02-08T22:58:49.001Z,103403.22
2023-02-08T23:01:17.199Z,103399.72
2023-02-08T23:03:43.797Z,103396.25
2023-02-08T23:06:14.265Z,103394.44
2023-02-08T23:08:40.860Z,103393.47
2023-02-08T23:11:07.357Z,103383.22
2023-02-08T23:13:34.715Z,103384.78
2023-02-08T23:16:01.338Z,103386.41
2023-02-08T23:18:27.900Z,103387.22
2023-02-08T23:20:54.751Z,103392.25
2023-02-08T23:23:21.390Z,103390.44
2023-02-08T23:25:47.972Z,103400.69
2023-02-08T23:28:14.569Z,103394.66
2023-02-08T23:30:42.650Z,103391.28
2023-02-08T23:33:09.275Z,103394.59
2023-02-08T23:35:38.751Z,103388.56
2023-02-08T23:38:05.185Z,103385.91
2023-02-08T23:40:31.613Z,103383.22
2023-02-08T23:42:58.092Z,103384.91
2023-02-08T23:45:24.634Z,103378.03
2023-02-08T23:47:51.143Z,103378.03
2023-02-08T23:50:17.663Z,103378.03
2023-02-08T23:52:44.097Z,103375.47
2023-02-08T23:55:10.629Z,103378.97
2023-02-08T23:57:37.598Z,103377.28
